createdAt,value
2017-05-27T00:01:03.790Z,17.20
2017-05-27T00:03:32.864Z,17.20
2017-05-27T00:06:01.972Z,17.20
2017-05-27T00:08:31.083Z,17.10
2017-05-27T00:11:00.291Z,17.10
2017-05-27T00:13:29.367Z,17.10
2017-05-27T00:15:58.470Z,17.00
2017-05-27T00:18:27.674Z,17.10
2017-05-27T00:20:56.911Z,17.00
2017-05-27T00:23:26.018Z,16.90
2017-05-27T00:25:55.126Z,16.90
2017-05-27T00:28:24.219Z,16.90
2017-05-27T00:30:53.423Z,16.80
2017-05-27T00:33:22.507Z,16.80
2017-05-27T00:35:51.587Z,16.70
2017-05-27T00:38:21.090Z,16.70
2017-05-27T00:40:50.151Z,16.60
2017-05-27T00:43:19.281Z,16.60
2017-05-27T00:45:48.491Z,16.60
2017-05-27T00:48:17.559Z,16.50
2017-05-27T00:50:46.639Z,16.40
2017-05-27T00:53:15.739Z,16.40
2017-05-27T00:55:44.798Z,16.30
2017-05-27T00:58:13.882Z,16.30
2017-05-27T01:00:42.960Z,16.20
2017-05-27T01:03:12.175Z,16.20
2017-05-27T01:05:41.259Z,16.20
2017-05-27T01:08:10.332Z,16.10
2017-05-27T01:10:39.539Z,16.10
2017-05-27T01:13:08.603Z,16.10
2017-05-27T01:15:37.678Z,16.00
2017-05-27T01:18:06.128Z,16.00
2017-05-27T01:20:35.187Z,16.00
2017-05-27T01:23:04.246Z,16.00
2017-05-27T01:25:33.378Z,16.00
2017-05-27T01:28:02.482Z,15.90
2017-05-27T01:30:31.594Z,15.90
2017-05-27T01:33:00.756Z,15.90
2017-05-27T01:35:29.944Z,15.80
2017-05-27T01:37:59.013Z,15.80
2017-05-27T01:40:28.087Z,15.80
2017-05-27T01:42:57.182Z,15.80
2017-05-27T01:45:26.283Z,15.80
2017-05-27T01:47:55.627Z,15.70
2017-05-27T01:50:24.680Z,15.70
2017-05-27T01:52:53.738Z,15.60
2017-05-27T01:55:22.975Z,15.60
2017-05-27T01:57:52.049Z,15.60
2017-05-27T02:00:21.123Z,15.50
2017-05-27T02:02:50.604Z,15.50
2017-05-27T02:05:19.679Z,15.50
2017-05-27T02:07:48.771Z,15.50
2017-05-27T02:10:17.863Z,15.40
2017-05-27T02:12:46.935Z,15.40
2017-05-27T02:15:16.146Z,15.40
2017-05-27T02:17:45.220Z,15.30
2017-05-27T02:20:14.476Z,15.30
2017-05-27T02:22:43.559Z,15.30
2017-05-27T02:25:12.635Z,15.30
2017-05-27T02:27:41.739Z,15.30
2017-05-27T02:30:10.817Z,15.30
2017-05-27T02:32:40.256Z,15.20
2017-05-27T02:35:09.336Z,15.20
2017-05-27T02:37:38.418Z,15.10
2017-05-27T02:40:06.767Z,15.10
2017-05-27T02:42:35.880Z,15.10
2017-05-27T02:45:04.975Z,15.10
2017-05-27T02:47:34.081Z,15.00
2017-05-27T02:50:03.311Z,15.00
2017-05-27T02:52:32.419Z,15.00
2017-05-27T02:55:01.521Z,15.00
2017-05-27T02:57:30.635Z,15.00
2017-05-27T02:59:59.745Z,14.90
2017-05-27T03:02:28.859Z,14.90
2017-05-27T03:04:57.943Z,14.90
2017-05-27T03:07:27.176Z,14.90
2017-05-27T03:09:56.280Z,14.90
2017-05-27T03:12:25.374Z,14.90
2017-05-27T03:14:54.495Z,14.90
2017-05-27T03:17:23.568Z,14.90
2017-05-27T03:19:52.842Z,14.80
2017-05-27T03:22:21.923Z,14.90
2017-05-27T03:24:51.003Z,14.80
2017-05-27T03:27:20.100Z,14.80
2017-05-27T03:29:49.178Z,14.80
2017-05-27T03:32:18.395Z,14.90
2017-05-27T03:34:47.499Z,14.80
2017-05-27T03:37:16.605Z,14.80
2017-05-27T03:39:46.230Z,14.90
2017-05-27T03:42:15.311Z,14.90
2017-05-27T03:44:44.528Z,14.90
2017-05-27T03:47:13.618Z,15.00
2017-05-27T03:49:42.713Z,15.10
2017-05-27T03:52:11.831Z,15.20
2017-05-27T03:54:40.915Z,15.30
2017-05-27T03:57:10.119Z,15.40
2017-05-27T03:59:39.188Z,15.50
2017-05-27T04:02:08.265Z,15.60
2017-05-27T04:04:37.782Z,15.70
2017-05-27T04:07:06.889Z,15.70
2017-05-27T04:09:35.963Z,15.80
2017-05-27T04:12:05.271Z,15.90
2017-05-27T04:14:34.363Z,15.90
2017-05-27T04:17:03.427Z,16.00
2017-05-27T04:19:32.517Z,16.10
2017-05-27T04:22:01.598Z,16.20
2017-05-27T04:24:31.663Z,16.20
2017-05-27T04:27:00.739Z,16.30
2017-05-27T04:29:29.807Z,16.30
2017-05-27T04:31:59.146Z,16.40
2017-05-27T04:34:28.231Z,16.40
2017-05-27T04:36:57.299Z,16.40
2017-05-27T04:39:26.424Z,16.50
2017-05-27T04:41:55.495Z,16.50
2017-05-27T04:44:24.603Z,16.50
2017-05-27T04:46:53.663Z,16.60
2017-05-27T04:49:22.867Z,16.60
2017-05-27T04:51:51.983Z,16.70
2017-05-27T04:54:21.063Z,16.80
2017-05-27T04:56:50.167Z,16.90
2017-05-27T04:59:19.245Z,16.90
2017-05-27T05:01:48.443Z,16.90
2017-05-27T05:04:17.532Z,17.00
2017-05-27T05:06:46.619Z,17.00
2017-05-27T05:09:15.715Z,17.10
2017-05-27T05:11:44.793Z,17.10
2017-05-27T05:14:13.987Z,17.20
2017-05-27T05:16:43.059Z,17.20
2017-05-27T05:19:12.183Z,17.30
2017-05-27T05:21:41.460Z,17.30
2017-05-27T05:24:10.542Z,17.40
2017-05-27T05:26:39.627Z,17.40
2017-05-27T05:29:08.839Z,17.50
2017-05-27T05:31:37.912Z,17.60
2017-05-27T05:34:07.007Z,17.70
2017-05-27T05:36:36.116Z,17.80
2017-05-27T05:39:05.219Z,17.80
2017-05-27T05:41:34.591Z,17.90
2017-05-27T05:44:03.666Z,18.00
2017-05-27T05:46:32.742Z,18.10
2017-05-27T05:49:02.651Z,18.20
2017-05-27T05:51:31.748Z,18.30
2017-05-27T05:54:00.852Z,18.40
2017-05-27T05:56:29.935Z,18.50
2017-05-27T05:58:59.171Z,18.60
2017-05-27T06:01:28.262Z,18.70
2017-05-27T06:03:57.503Z,18.70
2017-05-27T06:06:26.903Z,18.80
2017-05-27T06:08:55.983Z,18.80
2017-05-27T06:11:25.078Z,18.90
2017-05-27T06:13:54.283Z,19.00
2017-05-27T06:16:23.380Z,19.10
2017-05-27T06:18:52.457Z,19.20
2017-05-27T06:21:21.671Z,19.40
2017-05-27T06:23:50.750Z,19.50
2017-05-27T06:26:19.832Z,19.50
2017-05-27T06:28:48.935Z,19.60
2017-05-27T06:31:18.008Z,19.70
2017-05-27T06:33:47.113Z,19.80
2017-05-27T06:36:16.186Z,19.90
2017-05-27T06:38:45.450Z,20.00
2017-05-27T06:41:14.523Z,20.20
2017-05-27T06:43:43.579Z,20.20
2017-05-27T06:46:12.702Z,20.40
2017-05-27T06:48:41.792Z,20.40
2017-05-27T06:51:11.002Z,20.50
2017-05-27T06:53:40.086Z,20.60
2017-05-27T06:56:09.192Z,20.60
2017-05-27T06:58:38.300Z,20.70
2017-05-27T07:01:07.386Z,20.70
2017-05-27T07:03:36.492Z,20.80
2017-05-27T07:06:05.607Z,20.90
2017-05-27T07:08:35.103Z,20.90
2017-05-27T07:11:04.183Z,21.00
2017-05-27T07:13:33.259Z,21.20
2017-05-27T07:16:02.467Z,21.30
2017-05-27T07:18:31.556Z,21.40
2017-05-27T07:21:00.628Z,21.40
2017-05-27T07:23:29.747Z,21.40
2017-05-27T07:25:58.828Z,21.50
2017-05-27T07:28:28.028Z,21.60
2017-05-27T07:30:57.103Z,21.70
2017-05-27T07:33:26.177Z,21.80
2017-05-27T07:35:55.298Z,21.90
2017-05-27T07:38:24.383Z,22.00
2017-05-27T07:40:53.631Z,22.10
2017-05-27T07:43:22.682Z,22.20
2017-05-27T07:45:51.766Z,22.30
2017-05-27T07:48:20.975Z,22.30
2017-05-27T07:50:50.071Z,22.30
2017-05-27T07:53:19.139Z,22.40
2017-05-27T07:55:48.267Z,22.50
2017-05-27T07:58:17.358Z,22.50
2017-05-27T08:00:46.699Z,22.50
2017-05-27T08:03:15.771Z,22.50
2017-05-27T08:05:44.830Z,22.50
2017-05-27T08:08:13.919Z,22.60
2017-05-27T08:10:43.043Z,22.60
2017-05-27T08:13:12.159Z,22.60
2017-05-27T08:15:41.246Z,22.50
2017-05-27T08:18:10.668Z,22.50
2017-05-27T08:20:39.782Z,22.50
2017-05-27T08:23:08.899Z,22.60
2017-05-27T08:25:38.014Z,22.70
2017-05-27T08:28:07.082Z,22.80
2017-05-27T08:30:36.286Z,22.90
2017-05-27T08:33:10.315Z,22.90
2017-05-27T08:35:39.515Z,23.00
2017-05-27T08:38:08.718Z,23.00
2017-05-27T08:40:37.803Z,23.10
2017-05-27T08:43:06.875Z,23.20
2017-05-27T08:45:35.987Z,23.20
2017-05-27T08:48:05.227Z,23.30
2017-05-27T08:50:34.326Z,23.40
2017-05-27T08:53:03.461Z,23.50
2017-05-27T08:55:32.663Z,23.50
2017-05-27T08:58:01.732Z,23.50
2017-05-27T09:00:31.227Z,23.50
2017-05-27T09:03:00.321Z,23.40
2017-05-27T09:05:29.407Z,23.40
2017-05-27T09:07:57.751Z,23.40
2017-05-27T09:10:26.882Z,23.50
2017-05-27T09:12:56.098Z,23.60
2017-05-27T09:15:25.219Z,23.70
2017-05-27T09:17:54.319Z,23.80
2017-05-27T09:20:23.571Z,23.80
2017-05-27T09:22:52.651Z,23.90
2017-05-27T09:25:20.979Z,23.80
2017-05-27T09:27:50.204Z,23.80
2017-05-27T09:30:19.310Z,23.80
2017-05-27T09:32:48.406Z,23.90
2017-05-27T09:35:17.531Z,23.90
2017-05-27T09:37:46.657Z,24.00
2017-05-27T09:40:15.883Z,24.00
2017-05-27T09:42:44.224Z,24.00
2017-05-27T09:45:13.319Z,24.10
2017-05-27T09:47:41.687Z,24.10
2017-05-27T09:50:10.792Z,24.20
2017-05-27T09:52:39.915Z,24.30
2017-05-27T09:55:09.027Z,24.30
2017-05-27T09:57:38.252Z,24.40
2017-05-27T10:00:07.369Z,24.40
2017-05-27T10:02:36.454Z,24.50
2017-05-27T10:05:05.857Z,24.50
2017-05-27T10:07:34.949Z,24.60
2017-05-27T10:10:04.070Z,24.60
2017-05-27T10:12:33.342Z,24.70
2017-05-27T10:15:02.422Z,24.80
2017-05-27T10:17:31.526Z,24.90
2017-05-27T10:20:00.627Z,25.00
2017-05-27T10:22:29.724Z,25.00
2017-05-27T10:24:59.212Z,25.00
2017-05-27T10:27:28.307Z,25.00
2017-05-27T10:29:57.380Z,25.20
2017-05-27T10:32:26.500Z,25.10
2017-05-27T10:34:55.608Z,25.10
2017-05-27T10:37:24.810Z,25.10
2017-05-27T10:39:53.911Z,25.00
2017-05-27T10:42:23.011Z,25.00
2017-05-27T10:44:52.261Z,25.00
2017-05-27T10:47:21.372Z,25.00
2017-05-27T10:49:50.444Z,25.10
2017-05-27T10:52:19.978Z,25.10
2017-05-27T10:54:49.061Z,25.20
2017-05-27T10:57:18.148Z,25.20
2017-05-27T10:59:47.261Z,25.20
2017-05-27T11:02:16.365Z,25.20
2017-05-27T11:04:45.574Z,25.30
2017-05-27T11:07:14.670Z,25.30
2017-05-27T11:09:43.747Z,25.20
2017-05-27T11:12:12.845Z,25.20
2017-05-27T11:14:41.943Z,25.30
2017-05-27T11:17:11.339Z,25.30
2017-05-27T11:19:40.447Z,25.40
2017-05-27T11:22:09.540Z,25.60
2017-05-27T11:24:38.650Z,25.60
2017-05-27T11:27:07.751Z,25.50
2017-05-27T11:29:36.856Z,25.50
2017-05-27T11:32:05.936Z,25.50
2017-05-27T11:34:35.200Z,25.60
2017-05-27T11:37:04.272Z,25.80
2017-05-27T11:39:33.376Z,25.80
2017-05-27T11:42:02.592Z,25.90
2017-05-27T11:44:31.673Z,25.90
2017-05-27T11:47:00.765Z,25.90
2017-05-27T11:49:30.011Z,26.00
2017-05-27T11:51:59.126Z,26.10
2017-05-27T11:54:28.201Z,26.20
2017-05-27T11:56:57.434Z,26.20
2017-05-27T11:59:26.732Z,26.30
2017-05-27T12:01:55.958Z,26.20
2017-05-27T12:04:25.087Z,26.30
2017-05-27T12:06:54.170Z,26.30
2017-05-27T12:09:23.303Z,26.40
2017-05-27T12:11:52.396Z,26.40
2017-05-27T12:14:21.626Z,26.40
2017-05-27T12:16:50.728Z,26.40
2017-05-27T12:19:19.805Z,26.40
2017-05-27T12:21:49.031Z,26.40
2017-05-27T12:24:18.138Z,26.40
2017-05-27T12:26:47.231Z,26.30
2017-05-27T12:29:16.468Z,26.30
2017-05-27T12:31:45.558Z,26.30
2017-05-27T12:34:14.659Z,26.40
2017-05-27T12:36:43.883Z,26.40
2017-05-27T12:39:12.999Z,26.50
2017-05-27T12:41:42.106Z,26.50
2017-05-27T12:44:11.210Z,26.50
2017-05-27T12:46:40.295Z,26.40
2017-05-27T12:49:09.526Z,26.30
2017-05-27T12:51:38.634Z,26.20
2017-05-27T12:54:07.742Z,26.20
2017-05-27T12:56:36.873Z,26.10
2017-05-27T12:59:05.948Z,26.10
2017-05-27T13:01:35.166Z,26.20
2017-05-27T13:04:04.379Z,26.30
2017-05-27T13:06:33.480Z,26.30
2017-05-27T13:09:02.591Z,26.40
2017-05-27T13:11:31.707Z,26.40
2017-05-27T13:14:00.819Z,26.40
2017-05-27T13:16:29.933Z,26.40
2017-05-27T13:18:59.419Z,26.40
2017-05-27T13:21:28.547Z,26.30
2017-05-27T13:23:57.928Z,26.40
2017-05-27T13:26:27.174Z,26.50
2017-05-27T13:28:56.284Z,26.50
2017-05-27T13:31:25.406Z,26.50
2017-05-27T13:33:54.546Z,26.60
2017-05-27T13:36:23.638Z,26.60
2017-05-27T13:38:52.839Z,26.60
2017-05-27T13:41:21.912Z,26.60
2017-05-27T13:43:50.988Z,26.70
2017-05-27T13:46:20.499Z,26.60
2017-05-27T13:48:49.595Z,26.50
2017-05-27T13:51:18.711Z,26.50
2017-05-27T13:53:47.950Z,26.60
2017-05-27T13:56:17.065Z,26.60
2017-05-27T13:58:46.133Z,26.60
2017-05-27T14:01:15.291Z,26.50
2017-05-27T14:03:44.377Z,26.50
2017-05-27T14:06:13.617Z,26.50
2017-05-27T14:08:41.944Z,26.50
2017-05-27T14:11:11.079Z,26.50
2017-05-27T14:13:40.527Z,26.50
2017-05-27T14:16:09.604Z,26.50
2017-05-27T14:18:38.702Z,26.50
2017-05-27T14:21:07.811Z,26.50
2017-05-27T14:23:36.868Z,26.40
2017-05-27T14:26:06.043Z,26.50
2017-05-27T14:28:35.056Z,26.60
2017-05-27T14:31:04.279Z,26.60
2017-05-27T14:33:33.352Z,26.60
2017-05-27T14:36:01.677Z,26.60
2017-05-27T14:38:30.788Z,26.70
2017-05-27T14:40:59.889Z,26.70
2017-05-27T14:43:28.991Z,26.70
2017-05-27T14:45:57.307Z,26.70
2017-05-27T14:48:26.524Z,26.80
2017-05-27T14:50:55.607Z,26.90
2017-05-27T14:53:24.719Z,27.10
2017-05-27T14:55:53.863Z,27.10
2017-05-27T14:58:22.939Z,27.20
2017-05-27T15:00:52.166Z,27.30
2017-05-27T15:03:21.263Z,27.40
2017-05-27T15:05:50.330Z,27.60
2017-05-27T15:08:19.972Z,27.90
2017-05-27T15:10:49.096Z,28.30
2017-05-27T15:13:18.420Z,28.70
2017-05-27T15:15:47.499Z,29.20
2017-05-27T15:18:17.764Z,29.50
2017-05-27T15:20:46.879Z,29.90
2017-05-27T15:23:15.943Z,30.60
2017-05-27T15:25:45.161Z,31.20
2017-05-27T15:28:14.232Z,32.00
2017-05-27T15:30:43.405Z,32.60
2017-05-27T15:33:12.943Z,33.10
2017-05-27T15:35:42.051Z,33.70
2017-05-27T15:38:11.141Z,34.40
2017-05-27T15:40:40.263Z,35.00
2017-05-27T15:43:09.708Z,35.40
2017-05-27T15:45:38.998Z,35.30
2017-05-27T15:48:08.087Z,35.40
2017-05-27T15:50:37.196Z,35.60
2017-05-27T15:53:06.384Z,36.10
2017-05-27T15:55:35.470Z,36.20
2017-05-27T15:58:04.559Z,36.00
2017-05-27T16:00:33.642Z,35.70
2017-05-27T16:03:03.276Z,35.50
2017-05-27T16:05:32.445Z,35.70
2017-05-27T16:08:01.520Z,36.10
2017-05-27T16:10:30.627Z,36.20
2017-05-27T16:12:59.736Z,36.00
2017-05-27T16:15:29.211Z,35.80
2017-05-27T16:17:58.303Z,35.70
2017-05-27T16:20:27.408Z,35.70
2017-05-27T16:22:56.508Z,35.60
2017-05-27T16:25:25.585Z,35.60
2017-05-27T16:27:54.742Z,35.30
2017-05-27T16:30:23.853Z,35.40
2017-05-27T16:32:52.962Z,35.10
2017-05-27T16:35:22.051Z,35.30
2017-05-27T16:37:51.259Z,35.40
2017-05-27T16:40:20.356Z,35.70
2017-05-27T16:42:49.451Z,35.80
2017-05-27T16:45:18.578Z,35.80
2017-05-27T16:47:47.715Z,36.30
2017-05-27T16:50:16.935Z,36.40
2017-05-27T16:52:46.035Z,36.80
2017-05-27T16:55:15.128Z,37.00
2017-05-27T16:57:44.295Z,36.90
2017-05-27T17:00:13.369Z,36.80
2017-05-27T17:02:42.594Z,36.30
2017-05-27T17:05:11.685Z,36.40
2017-05-27T17:07:40.787Z,36.50
2017-05-27T17:10:10.039Z,36.90
2017-05-27T17:12:39.172Z,36.90
2017-05-27T17:15:08.284Z,36.50
2017-05-27T17:17:37.435Z,36.40
2017-05-27T17:20:06.537Z,36.20
2017-05-27T17:22:35.656Z,36.50
2017-05-27T17:25:04.767Z,36.50
2017-05-27T17:27:33.967Z,36.40
2017-05-27T17:30:03.079Z,36.10
2017-05-27T17:32:32.175Z,36.10
2017-05-27T17:35:01.307Z,36.00
2017-05-27T17:37:30.442Z,35.60
2017-05-27T17:39:59.669Z,35.40
2017-05-27T17:42:28.772Z,35.10
2017-05-27T17:44:57.892Z,34.80
2017-05-27T17:47:27.031Z,34.50
2017-05-27T17:49:56.118Z,33.60
2017-05-27T17:52:25.254Z,32.40
2017-05-27T17:54:54.403Z,31.40
2017-05-27T17:57:23.539Z,30.50
2017-05-27T17:59:52.657Z,29.70
2017-05-27T18:02:21.786Z,29.00
2017-05-27T18:04:50.923Z,28.40
2017-05-27T18:07:20.797Z,27.90
2017-05-27T18:09:49.901Z,27.50
2017-05-27T18:12:18.987Z,27.10
2017-05-27T18:14:48.179Z,26.80
2017-05-27T18:17:17.307Z,26.60
2017-05-27T18:19:46.415Z,26.40
2017-05-27T18:22:15.774Z,26.20
2017-05-27T18:24:44.852Z,26.00
2017-05-27T18:27:13.951Z,25.90
2017-05-27T18:29:43.053Z,25.70
2017-05-27T18:32:12.129Z,25.60
2017-05-27T18:34:41.344Z,25.50
2017-05-27T18:37:10.435Z,25.40
2017-05-27T18:39:39.519Z,25.20
2017-05-27T18:42:08.655Z,25.10
2017-05-27T18:44:37.728Z,25.00
2017-05-27T18:47:06.987Z,24.90
2017-05-27T18:49:36.064Z,24.80
2017-05-27T18:52:05.205Z,24.70
2017-05-27T18:54:34.309Z,24.60
2017-05-27T18:57:04.179Z,24.50
2017-05-27T18:59:34.329Z,24.40
2017-05-27T19:02:03.420Z,24.30
2017-05-27T19:04:32.539Z,24.20
2017-05-27T19:07:01.667Z,24.10
2017-05-27T19:09:30.772Z,24.00
2017-05-27T19:11:59.979Z,23.80
2017-05-27T19:14:29.097Z,23.70
2017-05-27T19:16:58.159Z,23.60
2017-05-27T19:19:27.295Z,23.50
2017-05-27T19:21:57.042Z,23.40
2017-05-27T19:24:26.239Z,23.30
2017-05-27T19:26:55.714Z,23.20
2017-05-27T19:29:25.021Z,23.10
2017-05-27T19:31:54.133Z,23.00
2017-05-27T19:34:23.669Z,23.00
2017-05-27T19:36:53.212Z,22.90
2017-05-27T19:39:22.380Z,22.80
2017-05-27T19:41:51.505Z,22.80
2017-05-27T19:44:20.918Z,22.70
2017-05-27T19:46:50.108Z,22.60
2017-05-27T19:49:19.272Z,22.60
2017-05-27T19:51:48.512Z,22.50
2017-05-27T19:54:17.602Z,22.50
2017-05-27T19:56:46.727Z,22.40
2017-05-27T19:59:15.161Z,22.30
2017-05-27T20:01:44.272Z,22.30
2017-05-27T20:04:13.376Z,22.20
2017-05-27T20:06:42.532Z,22.20
2017-05-27T20:09:11.614Z,22.20
2017-05-27T20:11:40.864Z,22.10
2017-05-27T20:14:09.956Z,22.00
2017-05-27T20:16:39.057Z,22.00
2017-05-27T20:19:08.293Z,22.00
2017-05-27T20:21:37.379Z,21.90
2017-05-27T20:24:06.476Z,21.90
2017-05-27T20:26:35.596Z,21.80
2017-05-27T20:29:04.667Z,21.80
2017-05-27T20:31:33.797Z,21.80
2017-05-27T20:34:02.898Z,21.70
2017-05-27T20:36:32.278Z,21.70
2017-05-27T20:39:01.347Z,21.60
2017-05-27T20:41:30.450Z,21.60
2017-05-27T20:43:59.553Z,21.50
2017-05-27T20:46:28.622Z,21.50
2017-05-27T20:48:58.079Z,21.50
2017-05-27T20:51:27.164Z,21.40
2017-05-27T20:53:56.236Z,21.40
2017-05-27T20:56:25.353Z,21.40
2017-05-27T20:58:54.465Z,21.30
2017-05-27T21:01:24.123Z,21.30
2017-05-27T21:03:53.234Z,21.20
2017-05-27T21:06:22.310Z,21.20
2017-05-27T21:08:51.450Z,21.10
2017-05-27T21:11:20.540Z,21.10
2017-05-27T21:13:49.625Z,21.00
2017-05-27T21:16:18.715Z,21.00
2017-05-27T21:18:48.142Z,21.00
2017-05-27T21:21:17.226Z,20.90
2017-05-27T21:23:46.284Z,20.90
2017-05-27T21:26:15.375Z,20.80
2017-05-27T21:28:44.446Z,20.80
2017-05-27T21:31:13.809Z,20.70
2017-05-27T21:33:42.880Z,20.70
2017-05-27T21:36:11.956Z,20.60
2017-05-27T21:38:41.424Z,20.60
2017-05-27T21:41:10.475Z,20.50
2017-05-27T21:43:39.705Z,20.50
2017-05-27T21:46:09.915Z,20.50
2017-05-27T21:48:39.159Z,20.40
2017-05-27T21:51:08.319Z,20.40
2017-05-27T21:53:37.743Z,20.40
2017-05-27T21:56:06.836Z,20.40
2017-05-27T21:58:36.126Z,20.30
2017-05-27T22:01:05.217Z,20.30
2017-05-27T22:03:34.289Z,20.30
2017-05-27T22:06:03.473Z,20.30
2017-05-27T22:08:32.523Z,20.20
2017-05-27T22:11:01.626Z,20.30
2017-05-27T22:13:30.701Z,20.20
2017-05-27T22:15:59.770Z,20.20
2017-05-27T22:18:28.968Z,20.10
2017-05-27T22:20:58.138Z,20.10
2017-05-27T22:23:27.221Z,20.10
2017-05-27T22:25:56.330Z,20.10
2017-05-27T22:28:25.408Z,20.00
2017-05-27T22:30:54.523Z,20.00
2017-05-27T22:33:23.587Z,19.90
2017-05-27T22:35:53.615Z,19.90
2017-05-27T22:38:23.629Z,19.80
2017-05-27T22:40:52.760Z,19.90
2017-05-27T22:43:21.951Z,19.80
2017-05-27T22:45:51.007Z,19.80
2017-05-27T22:48:20.071Z,19.80
2017-05-27T22:50:49.487Z,19.70
2017-05-27T22:53:18.559Z,19.70
2017-05-27T22:55:47.635Z,19.70
2017-05-27T22:58:16.724Z,19.60
2017-05-27T23:00:45.793Z,19.60
2017-05-27T23:03:14.227Z,19.60
2017-05-27T23:05:43.277Z,19.60
2017-05-27T23:08:12.328Z,19.50
2017-05-27T23:10:41.419Z,19.50
2017-05-27T23:13:10.488Z,19.50
2017-05-27T23:15:39.763Z,19.50
2017-05-27T23:18:08.851Z,19.50
2017-05-27T23:20:37.916Z,19.50
2017-05-27T23:23:06.998Z,19.50
2017-05-27T23:25:36.078Z,19.50
2017-05-27T23:28:05.166Z,19.50
2017-05-27T23:30:34.282Z,19.50
2017-05-27T23:33:03.478Z,19.40
2017-05-27T23:35:32.643Z,19.40
2017-05-27T23:38:01.708Z,19.40
2017-05-27T23:40:31.041Z,19.40
2017-05-27T23:43:00.111Z,19.40
2017-05-27T23:45:29.184Z,19.40
2017-05-27T23:47:58.269Z,19.40
2017-05-27T23:50:27.334Z,19.30
2017-05-27T23:52:56.524Z,19.30
2017-05-27T23:55:25.607Z,19.30
2017-05-27T23:57:54.700Z,19.20
